sensor_id;sensor_type;location;lat;lon;timestamp;P1;durP1;ratioP1;P2;durP2;ratioP2
9848;SDS011;4963;51.444;6.528;2023-11-19T00:00:14;8.27;;;7.57;;
9848;SDS011;4963;51.444;6.528;2023-11-19T00:02:42;7.73;;;7.03;;
9848;SDS011;4963;51.444;6.528;2023-11-19T00:05:09;7.53;;;6.77;;
9848;SDS011;4963;51.444;6.528;2023-11-19T00:07:37;7.93;;;6.90;;
9848;SDS011;4963;51.444;6.528;2023-11-19T00:10:08;8.50;;;7.33;;
9848;SDS011;4963;51.444;6.528;2023-11-19T00:12:36;8.30;;;7.50;;
9848;SDS011;4963;51.444;6.528;2023-11-19T00:15:05;8.10;;;7.07;;
9848;SDS011;4963;51.444;6.528;2023-11-19T00:17:36;8.17;;;7.37;;
9848;SDS011;4963;51.444;6.528;2023-11-19T00:20:03;8.60;;;6.80;;
9848;SDS011;4963;51.444;6.528;2023-11-19T00:22:32;7.80;;;6.33;;
9848;SDS011;4963;51.444;6.528;2023-11-19T00:24:59;6.60;;;6.00;;
9848;SDS011;4963;51.444;6.528;2023-11-19T00:27:27;5.90;;;5.40;;
9848;SDS011;4963;51.444;6.528;2023-11-19T00:29:54;5.80;;;5.20;;
9848;SDS011;4963;51.444;6.528;2023-11-19T00:32:23;6.47;;;5.30;;
9848;SDS011;4963;51.444;6.528;2023-11-19T00:34:50;9.83;;;6.77;;
9848;SDS011;4963;51.444;6.528;2023-11-19T00:37:17;5.20;;;4.70;;
9848;SDS011;4963;51.444;6.528;2023-11-19T00:39:44;8.37;;;5.50;;
9848;SDS011;4963;51.444;6.528;2023-11-19T00:42:11;5.87;;;5.27;;
9848;SDS011;4963;51.444;6.528;2023-11-19T00:44:38;5.63;;;5.13;;
9848;SDS011;4963;51.444;6.528;2023-11-19T00:47:06;5.33;;;4.80;;
9848;SDS011;4963;51.444;6.528;2023-11-19T00:49:34;5.40;;;4.43;;
9848;SDS011;4963;51.444;6.528;2023-11-19T00:52:01;4.90;;;4.47;;
9848;SDS011;4963;51.444;6.528;2023-11-19T00:54:28;5.37;;;4.50;;
9848;SDS011;4963;51.444;6.528;2023-11-19T00:56:55;5.20;;;4.70;;
9848;SDS011;4963;51.444;6.528;2023-11-19T00:59:22;5.40;;;4.40;;
9848;SDS011;4963;51.444;6.528;2023-11-19T01:01:49;4.33;;;3.80;;
9848;SDS011;4963;51.444;6.528;2023-11-19T01:04:16;5.57;;;4.23;;
9848;SDS011;4963;51.444;6.528;2023-11-19T01:06:45;6.80;;;3.97;;
9848;SDS011;4963;51.444;6.528;2023-11-19T01:09:12;4.37;;;3.97;;
9848;SDS011;4963;51.444;6.528;2023-11-19T01:11:40;5.27;;;3.50;;
9848;SDS011;4963;51.444;6.528;2023-11-19T01:14:06;4.73;;;3.20;;
9848;SDS011;4963;51.444;6.528;2023-11-19T01:16:33;3.83;;;3.30;;
9848;SDS011;4963;51.444;6.528;2023-11-19T01:19:00;3.80;;;2.87;;
9848;SDS011;4963;51.444;6.528;2023-11-19T01:21:29;3.83;;;2.80;;
9848;SDS011;4963;51.444;6.528;2023-11-19T01:23:58;3.17;;;2.37;;
9848;SDS011;4963;51.444;6.528;2023-11-19T01:26:26;4.03;;;2.90;;
9848;SDS011;4963;51.444;6.528;2023-11-19T01:28:52;3.37;;;2.73;;
9848;SDS011;4963;51.444;6.528;2023-11-19T01:31:19;5.37;;;3.00;;
9848;SDS011;4963;51.444;6.528;2023-11-19T01:33:46;3.00;;;2.70;;
9848;SDS011;4963;51.444;6.528;2023-11-19T01:36:15;3.50;;;2.93;;
9848;SDS011;4963;51.444;6.528;2023-11-19T01:38:42;3.60;;;2.60;;
9848;SDS011;4963;51.444;6.528;2023-11-19T01:41:11;3.17;;;2.60;;
9848;SDS011;4963;51.444;6.528;2023-11-19T01:43:38;3.53;;;2.70;;
9848;SDS011;4963;51.444;6.528;2023-11-19T01:46:07;4.47;;;2.80;;
9848;SDS011;4963;51.444;6.528;2023-11-19T01:48:36;3.60;;;3.30;;
9848;SDS011;4963;51.444;6.528;2023-11-19T01:51:06;6.50;;;3.23;;
9848;SDS011;4963;51.444;6.528;2023-11-19T01:53:34;6.10;;;3.60;;
9848;SDS011;4963;51.444;6.528;2023-11-19T01:56:03;4.97;;;3.13;;
9848;SDS011;4963;51.444;6.528;2023-11-19T01:58:32;5.80;;;3.70;;
9848;SDS011;4963;51.444;6.528;2023-11-19T02:00:59;5.73;;;3.47;;
9848;SDS011;4963;51.444;6.528;2023-11-19T02:03:29;7.13;;;3.27;;
9848;SDS011;4963;51.444;6.528;2023-11-19T02:05:59;5.20;;;3.50;;
9848;SDS011;4963;51.444;6.528;2023-11-19T02:08:26;6.03;;;3.77;;
9848;SDS011;4963;51.444;6.528;2023-11-19T02:10:54;7.33;;;3.37;;
9848;SDS011;4963;51.444;6.528;2023-11-19T02:13:22;8.17;;;3.27;;
9848;SDS011;4963;51.444;6.528;2023-11-19T02:15:53;7.53;;;3.63;;
9848;SDS011;4963;51.444;6.528;2023-11-19T02:18:21;10.23;;;3.83;;
9848;SDS011;4963;51.444;6.528;2023-11-19T02:20:49;11.00;;;3.10;;
9848;SDS011;4963;51.444;6.528;2023-11-19T02:23:17;5.97;;;2.53;;
9848;SDS011;4963;51.444;6.528;2023-11-19T02:25:47;9.30;;;3.50;;
9848;SDS011;4963;51.444;6.528;2023-11-19T02:28:19;8.23;;;3.17;;
9848;SDS011;4963;51.444;6.528;2023-11-19T02:30:47;10.03;;;3.20;;
9848;SDS011;4963;51.444;6.528;2023-11-19T02:33:15;10.10;;;3.47;;
9848;SDS011;4963;51.444;6.528;2023-11-19T02:35:42;7.23;;;2.57;;
9848;SDS011;4963;51.444;6.528;2023-11-19T02:38:09;5.73;;;2.93;;
9848;SDS011;4963;51.444;6.528;2023-11-19T02:40:36;10.73;;;3.30;;
9848;SDS011;4963;51.444;6.528;2023-11-19T02:43:03;7.10;;;2.80;;
9848;SDS011;4963;51.444;6.528;2023-11-19T02:45:32;9.57;;;3.00;;
9848;SDS011;4963;51.444;6.528;2023-11-19T02:47:58;8.93;;;2.63;;
9848;SDS011;4963;51.444;6.528;2023-11-19T02:50:27;8.03;;;3.00;;
9848;SDS011;4963;51.444;6.528;2023-11-19T02:52:55;6.53;;;2.87;;
9848;SDS011;4963;51.444;6.528;2023-11-19T02:55:22;5.67;;;2.73;;
9848;SDS011;4963;51.444;6.528;2023-11-19T02:57:50;10.00;;;3.27;;
9848;SDS011;4963;51.444;6.528;2023-11-19T03:00:18;8.30;;;3.17;;
9848;SDS011;4963;51.444;6.528;2023-11-19T03:02:52;11.30;;;3.20;;
9848;SDS011;4963;51.444;6.528;2023-11-19T03:05:25;10.73;;;3.17;;
9848;SDS011;4963;51.444;6.528;2023-11-19T03:07:55;11.33;;;3.20;;
9848;SDS011;4963;51.444;6.528;2023-11-19T03:10:22;9.80;;;3.60;;
9848;SDS011;4963;51.444;6.528;2023-11-19T03:12:49;7.40;;;2.90;;
9848;SDS011;4963;51.444;6.528;2023-11-19T03:15:17;14.73;;;3.03;;
9848;SDS011;4963;51.444;6.528;2023-11-19T03:17:46;14.53;;;3.60;;
9848;SDS011;4963;51.444;6.528;2023-11-19T03:20:14;16.23;;;3.90;;
9848;SDS011;4963;51.444;6.528;2023-11-19T03:22:41;11.40;;;3.20;;
9848;SDS011;4963;51.444;6.528;2023-11-19T03:25:09;16.27;;;4.67;;
9848;SDS011;4963;51.444;6.528;2023-11-19T03:27:36;18.70;;;4.70;;
9848;SDS011;4963;51.444;6.528;2023-11-19T03:30:05;16.47;;;3.33;;
9848;SDS011;4963;51.444;6.528;2023-11-19T03:32:32;12.90;;;3.20;;
9848;SDS011;4963;51.444;6.528;2023-11-19T03:35:00;15.87;;;3.97;;
9848;SDS011;4963;51.444;6.528;2023-11-19T03:37:31;30.37;;;5.10;;
9848;SDS011;4963;51.444;6.528;2023-11-19T03:39:59;15.93;;;3.50;;
9848;SDS011;4963;51.444;6.528;2023-11-19T03:42:27;15.00;;;4.07;;
9848;SDS011;4963;51.444;6.528;2023-11-19T03:44:55;17.00;;;3.70;;
9848;SDS011;4963;51.444;6.528;2023-11-19T03:47:23;17.97;;;3.90;;
9848;SDS011;4963;51.444;6.528;2023-11-19T03:49:51;18.43;;;3.67;;
9848;SDS011;4963;51.444;6.528;2023-11-19T03:52:18;17.17;;;3.97;;
9848;SDS011;4963;51.444;6.528;2023-11-19T03:54:46;16.80;;;4.03;;
9848;SDS011;4963;51.444;6.528;2023-11-19T03:57:13;17.87;;;4.20;;
9848;SDS011;4963;51.444;6.528;2023-11-19T03:59:40;16.70;;;3.83;;
9848;SDS011;4963;51.444;6.528;2023-11-19T04:02:07;20.03;;;4.40;;
9848;SDS011;4963;51.444;6.528;2023-11-19T04:04:35;12.77;;;3.27;;
9848;SDS011;4963;51.444;6.528;2023-11-19T04:07:04;13.47;;;3.70;;
9848;SDS011;4963;51.444;6.528;2023-11-19T04:09:31;14.37;;;4.10;;
9848;SDS011;4963;51.444;6.528;2023-11-19T04:12:00;17.80;;;4.53;;
9848;SDS011;4963;51.444;6.528;2023-11-19T04:14:27;20.30;;;4.77;;
9848;SDS011;4963;51.444;6.528;2023-11-19T04:16:54;19.10;;;3.97;;
9848;SDS011;4963;51.444;6.528;2023-11-19T04:19:21;20.37;;;4.63;;
9848;SDS011;4963;51.444;6.528;2023-11-19T04:21:48;18.87;;;4.67;;
9848;SDS011;4963;51.444;6.528;2023-11-19T04:24:15;21.60;;;4.17;;
9848;SDS011;4963;51.444;6.528;2023-11-19T04:26:44;18.77;;;4.20;;
9848;SDS011;4963;51.444;6.528;2023-11-19T04:29:14;24.83;;;5.30;;
9848;SDS011;4963;51.444;6.528;2023-11-19T04:31:42;18.70;;;4.40;;
9848;SDS011;4963;51.444;6.528;2023-11-19T04:34:09;21.87;;;4.50;;
9848;SDS011;4963;51.444;6.528;2023-11-19T04:36:36;19.37;;;4.53;;
9848;SDS011;4963;51.444;6.528;2023-11-19T04:39:04;22.70;;;4.83;;
9848;SDS011;4963;51.444;6.528;2023-11-19T04:41:34;25.17;;;5.47;;
9848;SDS011;4963;51.444;6.528;2023-11-19T04:44:01;24.93;;;6.03;;
9848;SDS011;4963;51.444;6.528;2023-11-19T04:46:29;24.80;;;4.90;;
9848;SDS011;4963;51.444;6.528;2023-11-19T04:48:56;24.20;;;5.10;;
9848;SDS011;4963;51.444;6.528;2023-11-19T04:51:23;21.17;;;4.17;;
9848;SDS011;4963;51.444;6.528;2023-11-19T04:53:50;19.33;;;4.77;;
9848;SDS011;4963;51.444;6.528;2023-11-19T04:56:19;20.73;;;4.60;;
9848;SDS011;4963;51.444;6.528;2023-11-19T04:58:48;27.93;;;5.60;;
9848;SDS011;4963;51.444;6.528;2023-11-19T05:01:14;22.03;;;4.90;;
9848;SDS011;4963;51.444;6.528;2023-11-19T05:03:44;26.50;;;6.20;;
9848;SDS011;4963;51.444;6.528;2023-11-19T05:06:11;20.33;;;4.73;;
9848;SDS011;4963;51.444;6.528;2023-11-19T05:08:38;19.10;;;4.60;;
9848;SDS011;4963;51.444;6.528;2023-11-19T05:11:05;17.30;;;4.57;;
9848;SDS011;4963;51.444;6.528;2023-11-19T05:13:32;19.90;;;5.60;;
9848;SDS011;4963;51.444;6.528;2023-11-19T05:15:59;28.40;;;5.27;;
9848;SDS011;4963;51.444;6.528;2023-11-19T05:18:26;24.90;;;5.33;;
9848;SDS011;4963;51.444;6.528;2023-11-19T05:20:55;24.37;;;5.23;;
9848;SDS011;4963;51.444;6.528;2023-11-19T05:23:24;22.60;;;4.27;;
9848;SDS011;4963;51.444;6.528;2023-11-19T05:25:51;21.73;;;5.37;;
9848;SDS011;4963;51.444;6.528;2023-11-19T05:28:19;21.43;;;4.70;;
9848;SDS011;4963;51.444;6.528;2023-11-19T05:30:46;17.20;;;4.23;;
9848;SDS011;4963;51.444;6.528;2023-11-19T05:33:12;22.47;;;4.43;;
9848;SDS011;4963;51.444;6.528;2023-11-19T05:35:39;21.60;;;4.70;;
9848;SDS011;4963;51.444;6.528;2023-11-19T05:38:07;19.53;;;5.40;;
9848;SDS011;4963;51.444;6.528;2023-11-19T05:40:34;17.93;;;5.00;;
9848;SDS011;4963;51.444;6.528;2023-11-19T05:43:03;16.57;;;5.40;;
9848;SDS011;4963;51.444;6.528;2023-11-19T05:45:31;20.10;;;4.90;;
9848;SDS011;4963;51.444;6.528;2023-11-19T05:47:58;28.93;;;5.43;;
9848;SDS011;4963;51.444;6.528;2023-11-19T05:50:25;21.53;;;4.80;;
9848;SDS011;4963;51.444;6.528;2023-11-19T05:52:52;20.87;;;5.10;;
9848;SDS011;4963;51.444;6.528;2023-11-19T05:55:20;24.63;;;5.97;;
9848;SDS011;4963;51.444;6.528;2023-11-19T05:57:49;26.63;;;5.80;;
9848;SDS011;4963;51.444;6.528;2023-11-19T06:00:17;19.83;;;4.63;;
9848;SDS011;4963;51.444;6.528;2023-11-19T06:02:44;26.67;;;5.57;;
9848;SDS011;4963;51.444;6.528;2023-11-19T06:05:11;22.53;;;5.50;;
9848;SDS011;4963;51.444;6.528;2023-11-19T06:07:38;25.17;;;5.33;;
9848;SDS011;4963;51.444;6.528;2023-11-19T06:10:06;24.40;;;5.40;;
9848;SDS011;4963;51.444;6.528;2023-11-19T06:12:36;28.43;;;5.23;;
9848;SDS011;4963;51.444;6.528;2023-11-19T06:15:06;20.43;;;5.07;;
9848;SDS011;4963;51.444;6.528;2023-11-19T06:17:34;20.27;;;4.27;;
9848;SDS011;4963;51.444;6.528;2023-11-19T06:20:01;21.87;;;5.73;;
9848;SDS011;4963;51.444;6.528;2023-11-19T06:22:29;25.23;;;4.87;;
9848;SDS011;4963;51.444;6.528;2023-11-19T06:24:56;24.30;;;4.50;;
9848;SDS011;4963;51.444;6.528;2023-11-19T06:27:25;31.33;;;5.67;;
9848;SDS011;4963;51.444;6.528;2023-11-19T06:29:53;25.93;;;5.53;;
9848;SDS011;4963;51.444;6.528;2023-11-19T06:32:20;22.00;;;5.83;;
9848;SDS011;4963;51.444;6.528;2023-11-19T06:34:47;24.33;;;5.90;;
9848;SDS011;4963;51.444;6.528;2023-11-19T06:37:14;23.87;;;5.17;;
9848;SDS011;4963;51.444;6.528;2023-11-19T06:39:40;26.30;;;5.00;;
9848;SDS011;4963;51.444;6.528;2023-11-19T06:42:07;24.07;;;6.20;;
9848;SDS011;4963;51.444;6.528;2023-11-19T06:44:35;26.67;;;6.60;;
9848;SDS011;4963;51.444;6.528;2023-11-19T06:47:03;20.43;;;5.90;;
9848;SDS011;4963;51.444;6.528;2023-11-19T06:49:31;25.83;;;5.90;;
9848;SDS011;4963;51.444;6.528;2023-11-19T06:51:58;26.03;;;5.47;;
9848;SDS011;4963;51.444;6.528;2023-11-19T06:54:25;23.83;;;5.17;;
9848;SDS011;4963;51.444;6.528;2023-11-19T06:56:52;27.13;;;5.37;;
9848;SDS011;4963;51.444;6.528;2023-11-19T06:59:19;26.23;;;5.47;;
9848;SDS011;4963;51.444;6.528;2023-11-19T07:01:46;25.23;;;5.43;;
9848;SDS011;4963;51.444;6.528;2023-11-19T07:04:15;25.67;;;5.07;;
9848;SDS011;4963;51.444;6.528;2023-11-19T07:06:43;23.27;;;5.97;;
9848;SDS011;4963;51.444;6.528;2023-11-19T07:09:10;33.87;;;6.30;;
9848;SDS011;4963;51.444;6.528;2023-11-19T07:11:37;35.57;;;6.40;;
9848;SDS011;4963;51.444;6.528;2023-11-19T07:14:04;24.50;;;6.03;;
9848;SDS011;4963;51.444;6.528;2023-11-19T07:16:31;26.40;;;6.03;;
9848;SDS011;4963;51.444;6.528;2023-11-19T07:18:59;23.37;;;4.97;;
9848;SDS011;4963;51.444;6.528;2023-11-19T07:21:28;17.83;;;5.30;;
9848;SDS011;4963;51.444;6.528;2023-11-19T07:23:55;33.80;;;6.20;;
9848;SDS011;4963;51.444;6.528;2023-11-19T07:26:22;24.83;;;5.30;;
9848;SDS011;4963;51.444;6.528;2023-11-19T07:28:49;23.63;;;5.23;;
9848;SDS011;4963;51.444;6.528;2023-11-19T07:31:17;24.50;;;5.63;;
9848;SDS011;4963;51.444;6.528;2023-11-19T07:33:44;22.63;;;5.63;;
9848;SDS011;4963;51.444;6.528;2023-11-19T07:36:12;26.20;;;5.53;;
9848;SDS011;4963;51.444;6.528;2023-11-19T07:38:41;32.50;;;6.77;;
9848;SDS011;4963;51.444;6.528;2023-11-19T07:41:09;29.80;;;5.90;;
9848;SDS011;4963;51.444;6.528;2023-11-19T07:43:38;21.37;;;5.77;;
9848;SDS011;4963;51.444;6.528;2023-11-19T07:46:10;20.87;;;5.13;;
9848;SDS011;4963;51.444;6.528;2023-11-19T07:48:38;29.23;;;5.77;;
9848;SDS011;4963;51.444;6.528;2023-11-19T07:51:05;21.50;;;5.57;;
9848;SDS011;4963;51.444;6.528;2023-11-19T07:53:32;29.90;;;6.00;;
9848;SDS011;4963;51.444;6.528;2023-11-19T07:56:00;24.53;;;5.43;;
9848;SDS011;4963;51.444;6.528;2023-11-19T07:58:27;24.97;;;6.20;;
9848;SDS011;4963;51.444;6.528;2023-11-19T08:00:54;25.20;;;4.70;;
9848;SDS011;4963;51.444;6.528;2023-11-19T08:03:21;24.50;;;4.63;;
9848;SDS011;4963;51.444;6.528;2023-11-19T08:05:48;28.70;;;5.10;;
9848;SDS011;4963;51.444;6.528;2023-11-19T08:08:15;24.50;;;4.97;;
9848;SDS011;4963;51.444;6.528;2023-11-19T08:10:42;31.63;;;6.37;;
9848;SDS011;4963;51.444;6.528;2023-11-19T08:13:11;22.23;;;5.10;;
9848;SDS011;4963;51.444;6.528;2023-11-19T08:15:38;25.87;;;5.20;;
9848;SDS011;4963;51.444;6.528;2023-11-19T08:18:06;25.27;;;5.37;;
9848;SDS011;4963;51.444;6.528;2023-11-19T08:20:34;29.83;;;5.83;;
9848;SDS011;4963;51.444;6.528;2023-11-19T08:23:03;28.63;;;6.17;;
9848;SDS011;4963;51.444;6.528;2023-11-19T08:25:30;26.23;;;6.27;;
9848;SDS011;4963;51.444;6.528;2023-11-19T08:27:58;28.53;;;5.90;;
9848;SDS011;4963;51.444;6.528;2023-11-19T08:30:26;26.77;;;5.03;;
9848;SDS011;4963;51.444;6.528;2023-11-19T08:32:53;24.50;;;6.77;;
9848;SDS011;4963;51.444;6.528;2023-11-19T08:35:20;27.93;;;5.20;;
9848;SDS011;4963;51.444;6.528;2023-11-19T08:37:48;34.83;;;6.13;;
9848;SDS011;4963;51.444;6.528;2023-11-19T08:40:15;22.70;;;6.23;;
9848;SDS011;4963;51.444;6.528;2023-11-19T08:42:42;31.87;;;5.50;;
9848;SDS011;4963;51.444;6.528;2023-11-19T08:45:09;24.60;;;5.50;;
9848;SDS011;4963;51.444;6.528;2023-11-19T08:47:38;28.13;;;5.33;;
9848;SDS011;4963;51.444;6.528;2023-11-19T08:50:05;21.77;;;4.47;;
9848;SDS011;4963;51.444;6.528;2023-11-19T08:52:34;21.37;;;5.23;;
9848;SDS011;4963;51.444;6.528;2023-11-19T08:55:01;29.67;;;6.20;;
9848;SDS011;4963;51.444;6.528;2023-11-19T08:57:30;27.67;;;4.83;;
9848;SDS011;4963;51.444;6.528;2023-11-19T08:59:59;27.20;;;5.33;;
9848;SDS011;4963;51.444;6.528;2023-11-19T09:02:26;28.80;;;6.50;;
9848;SDS011;4963;51.444;6.528;2023-11-19T09:04:54;19.13;;;4.97;;
9848;SDS011;4963;51.444;6.528;2023-11-19T09:07:21;30.03;;;5.93;;
9848;SDS011;4963;51.444;6.528;2023-11-19T09:09:48;29.63;;;6.47;;
9848;SDS011;4963;51.444;6.528;2023-11-19T09:12:15;29.87;;;5.70;;
9848;SDS011;4963;51.444;6.528;2023-11-19T09:14:42;23.60;;;5.53;;
9848;SDS011;4963;51.444;6.528;2023-11-19T09:17:12;24.53;;;5.20;;
9848;SDS011;4963;51.444;6.528;2023-11-19T09:19:39;25.07;;;6.20;;
9848;SDS011;4963;51.444;6.528;2023-11-19T09:22:07;24.93;;;5.73;;
9848;SDS011;4963;51.444;6.528;2023-11-19T09:24:34;27.27;;;6.43;;
9848;SDS011;4963;51.444;6.528;2023-11-19T09:27:01;23.87;;;5.60;;
9848;SDS011;4963;51.444;6.528;2023-11-19T09:29:28;24.80;;;5.30;;
9848;SDS011;4963;51.444;6.528;2023-11-19T09:31:58;27.70;;;6.30;;
9848;SDS011;4963;51.444;6.528;2023-11-19T09:34:25;24.03;;;5.30;;
9848;SDS011;4963;51.444;6.528;2023-11-19T09:36:53;23.50;;;5.90;;
9848;SDS011;4963;51.444;6.528;2023-11-19T09:39:21;29.47;;;5.67;;
9848;SDS011;4963;51.444;6.528;2023-11-19T09:41:48;23.40;;;5.73;;
9848;SDS011;4963;51.444;6.528;2023-11-19T09:44:15;27.13;;;6.57;;
9848;SDS011;4963;51.444;6.528;2023-11-19T09:46:44;24.07;;;6.13;;
9848;SDS011;4963;51.444;6.528;2023-11-19T09:49:12;26.47;;;5.33;;
9848;SDS011;4963;51.444;6.528;2023-11-19T09:51:40;24.83;;;5.23;;
9848;SDS011;4963;51.444;6.528;2023-11-19T09:54:08;27.50;;;6.60;;
9848;SDS011;4963;51.444;6.528;2023-11-19T09:56:40;25.10;;;6.30;;
9848;SDS011;4963;51.444;6.528;2023-11-19T09:59:07;28.47;;;5.90;;
9848;SDS011;4963;51.444;6.528;2023-11-19T10:01:36;22.53;;;6.40;;
9848;SDS011;4963;51.444;6.528;2023-11-19T10:04:06;26.43;;;5.43;;
9848;SDS011;4963;51.444;6.528;2023-11-19T10:06:33;22.77;;;5.90;;
9848;SDS011;4963;51.444;6.528;2023-11-19T10:09:00;23.90;;;5.90;;
9848;SDS011;4963;51.444;6.528;2023-11-19T10:11:30;20.17;;;5.50;;
9848;SDS011;4963;51.444;6.528;2023-11-19T10:13:59;25.07;;;6.03;;
9848;SDS011;4963;51.444;6.528;2023-11-19T10:16:28;25.80;;;6.07;;
9848;SDS011;4963;51.444;6.528;2023-11-19T10:18:56;25.40;;;6.83;;
9848;SDS011;4963;51.444;6.528;2023-11-19T10:21:23;29.27;;;5.83;;
9848;SDS011;4963;51.444;6.528;2023-11-19T10:23:53;27.83;;;5.83;;
9848;SDS011;4963;51.444;6.528;2023-11-19T10:26:22;26.37;;;6.43;;
9848;SDS011;4963;51.444;6.528;2023-11-19T10:28:49;22.70;;;5.60;;
9848;SDS011;4963;51.444;6.528;2023-11-19T10:31:18;16.17;;;4.30;;
9848;SDS011;4963;51.444;6.528;2023-11-19T10:33:49;25.20;;;5.97;;
9848;SDS011;4963;51.444;6.528;2023-11-19T10:36:17;20.97;;;5.83;;
9848;SDS011;4963;51.444;6.528;2023-11-19T10:38:52;26.17;;;5.40;;
9848;SDS011;4963;51.444;6.528;2023-11-19T10:41:26;29.30;;;5.67;;
9848;SDS011;4963;51.444;6.528;2023-11-19T10:43:53;22.77;;;6.00;;
9848;SDS011;4963;51.444;6.528;2023-11-19T10:46:22;24.57;;;5.30;;
9848;SDS011;4963;51.444;6.528;2023-11-19T10:49:02;28.37;;;5.90;;
9848;SDS011;4963;51.444;6.528;2023-11-19T10:51:31;24.93;;;5.57;;
9848;SDS011;4963;51.444;6.528;2023-11-19T10:54:00;22.67;;;5.20;;
9848;SDS011;4963;51.444;6.528;2023-11-19T10:56:30;22.40;;;5.20;;
9848;SDS011;4963;51.444;6.528;2023-11-19T10:58:58;21.97;;;5.13;;
9848;SDS011;4963;51.444;6.528;2023-11-19T11:01:27;25.73;;;5.03;;
9848;SDS011;4963;51.444;6.528;2023-11-19T11:03:59;23.57;;;5.07;;
9848;SDS011;4963;51.444;6.528;2023-11-19T11:06:27;22.40;;;5.93;;
9848;SDS011;4963;51.444;6.528;2023-11-19T11:08:54;23.70;;;5.07;;
9848;SDS011;4963;51.444;6.528;2023-11-19T11:11:25;21.13;;;5.77;;
9848;SDS011;4963;51.444;6.528;2023-11-19T11:13:55;25.53;;;5.53;;
9848;SDS011;4963;51.444;6.528;2023-11-19T11:16:24;23.83;;;6.10;;
9848;SDS011;4963;51.444;6.528;2023-11-19T11:18:54;18.83;;;4.80;;
9848;SDS011;4963;51.444;6.528;2023-11-19T11:21:21;15.30;;;4.40;;
9848;SDS011;4963;51.444;6.528;2023-11-19T11:27:07;19.87;;;5.67;;
9848;SDS011;4963;51.444;6.528;2023-11-19T11:29:47;19.60;;;4.33;;
9848;SDS011;4963;51.444;6.528;2023-11-19T11:32:29;19.50;;;5.03;;
9848;SDS011;4963;51.444;6.528;2023-11-19T11:35:08;25.13;;;5.83;;
9848;SDS011;4963;51.444;6.528;2023-11-19T11:37:49;24.97;;;5.00;;
9848;SDS011;4963;51.444;6.528;2023-11-19T11:40:24;22.70;;;5.40;;
9848;SDS011;4963;51.444;6.528;2023-11-19T11:42:51;17.63;;;5.27;;
9848;SDS011;4963;51.444;6.528;2023-11-19T11:45:19;20.77;;;4.23;;
9848;SDS011;4963;51.444;6.528;2023-11-19T11:48:11;19.73;;;4.40;;
9848;SDS011;4963;51.444;6.528;2023-11-19T11:50:50;23.03;;;5.43;;
9848;SDS011;4963;51.444;6.528;2023-11-19T11:53:22;24.20;;;4.97;;
9848;SDS011;4963;51.444;6.528;2023-11-19T11:55:53;24.13;;;5.77;;
9848;SDS011;4963;51.444;6.528;2023-11-19T11:58:31;17.77;;;4.40;;
9848;SDS011;4963;51.444;6.528;2023-11-19T12:01:01;25.80;;;5.37;;
9848;SDS011;4963;51.444;6.528;2023-11-19T12:03:32;22.70;;;4.90;;
9848;SDS011;4963;51.444;6.528;2023-11-19T12:06:01;18.60;;;5.07;;
9848;SDS011;4963;51.444;6.528;2023-11-19T12:08:33;19.20;;;4.73;;
9848;SDS011;4963;51.444;6.528;2023-11-19T12:11:01;22.43;;;4.93;;
9848;SDS011;4963;51.444;6.528;2023-11-19T12:13:48;19.83;;;4.53;;
9848;SDS011;4963;51.444;6.528;2023-11-19T12:16:20;24.60;;;5.70;;
9848;SDS011;4963;51.444;6.528;2023-11-19T12:18:47;20.87;;;5.13;;
9848;SDS011;4963;51.444;6.528;2023-11-19T12:21:28;25.97;;;5.80;;
9848;SDS011;4963;51.444;6.528;2023-11-19T12:23:59;24.77;;;5.90;;
9848;SDS011;4963;51.444;6.528;2023-11-19T12:26:36;18.00;;;5.23;;
9848;SDS011;4963;51.444;6.528;2023-11-19T12:29:04;18.77;;;4.90;;
9848;SDS011;4963;51.444;6.528;2023-11-19T12:31:33;15.73;;;4.63;;
9848;SDS011;4963;51.444;6.528;2023-11-19T12:34:06;19.67;;;4.73;;
9848;SDS011;4963;51.444;6.528;2023-11-19T12:36:39;22.63;;;5.70;;
9848;SDS011;4963;51.444;6.528;2023-11-19T12:39:08;22.70;;;5.17;;
9848;SDS011;4963;51.444;6.528;2023-11-19T12:41:50;11.77;;;3.67;;
9848;SDS011;4963;51.444;6.528;2023-11-19T12:44:18;15.53;;;3.77;;
9848;SDS011;4963;51.444;6.528;2023-11-19T12:46:45;14.83;;;3.97;;
9848;SDS011;4963;51.444;6.528;2023-11-19T12:49:11;14.27;;;3.63;;
9848;SDS011;4963;51.444;6.528;2023-11-19T12:51:40;19.13;;;4.93;;
9848;SDS011;4963;51.444;6.528;2023-11-19T12:54:07;15.00;;;4.57;;
9848;SDS011;4963;51.444;6.528;2023-11-19T12:56:33;15.10;;;4.30;;
9848;SDS011;4963;51.444;6.528;2023-11-19T12:59:09;12.80;;;3.73;;
9848;SDS011;4963;51.444;6.528;2023-11-19T13:01:37;15.67;;;4.40;;
9848;SDS011;4963;51.444;6.528;2023-11-19T13:04:15;17.90;;;4.70;;
9848;SDS011;4963;51.444;6.528;2023-11-19T13:06:45;13.53;;;4.23;;
9848;SDS011;4963;51.444;6.528;2023-11-19T13:11:57;15.97;;;4.00;;
9848;SDS011;4963;51.444;6.528;2023-11-19T13:14:35;17.43;;;4.43;;
9848;SDS011;4963;51.444;6.528;2023-11-19T13:17:03;17.40;;;4.70;;
9848;SDS011;4963;51.444;6.528;2023-11-19T13:19:30;11.43;;;3.80;;
9848;SDS011;4963;51.444;6.528;2023-11-19T13:21:59;17.90;;;4.67;;
9848;SDS011;4963;51.444;6.528;2023-11-19T13:24:26;20.40;;;4.43;;
9848;SDS011;4963;51.444;6.528;2023-11-19T13:26:52;18.90;;;4.43;;
9848;SDS011;4963;51.444;6.528;2023-11-19T13:29:21;16.30;;;5.13;;
9848;SDS011;4963;51.444;6.528;2023-11-19T13:31:47;17.20;;;4.50;;
9848;SDS011;4963;51.444;6.528;2023-11-19T13:34:15;17.53;;;4.40;;
9848;SDS011;4963;51.444;6.528;2023-11-19T13:36:42;16.60;;;4.60;;
9848;SDS011;4963;51.444;6.528;2023-11-19T13:39:10;18.47;;;4.73;;
9848;SDS011;4963;51.444;6.528;2023-11-19T13:41:47;15.70;;;3.73;;
9848;SDS011;4963;51.444;6.528;2023-11-19T13:44:15;15.43;;;4.23;;
9848;SDS011;4963;51.444;6.528;2023-11-19T13:46:44;20.00;;;4.80;;
9848;SDS011;4963;51.444;6.528;2023-11-19T13:49:12;17.43;;;5.27;;
9848;SDS011;4963;51.444;6.528;2023-11-19T13:51:39;20.90;;;4.63;;
9848;SDS011;4963;51.444;6.528;2023-11-19T13:54:06;15.80;;;4.07;;
9848;SDS011;4963;51.444;6.528;2023-11-19T13:56:34;19.73;;;4.83;;
9848;SDS011;4963;51.444;6.528;2023-11-19T13:59:03;18.50;;;4.50;;
9848;SDS011;4963;51.444;6.528;2023-11-19T14:01:33;18.70;;;4.87;;
9848;SDS011;4963;51.444;6.528;2023-11-19T14:04:00;21.53;;;4.93;;
9848;SDS011;4963;51.444;6.528;2023-11-19T14:06:27;24.10;;;5.03;;
9848;SDS011;4963;51.444;6.528;2023-11-19T14:08:54;15.63;;;4.23;;
9848;SDS011;4963;51.444;6.528;2023-11-19T14:11:21;14.57;;;4.47;;
9848;SDS011;4963;51.444;6.528;2023-11-19T14:13:49;19.07;;;4.50;;
9848;SDS011;4963;51.444;6.528;2023-11-19T14:16:17;18.40;;;4.40;;
9848;SDS011;4963;51.444;6.528;2023-11-19T14:18:45;17.37;;;4.17;;
9848;SDS011;4963;51.444;6.528;2023-11-19T14:21:14;21.63;;;4.30;;
9848;SDS011;4963;51.444;6.528;2023-11-19T14:23:42;19.63;;;5.27;;
9848;SDS011;4963;51.444;6.528;2023-11-19T14:26:09;16.87;;;4.33;;
9848;SDS011;4963;51.444;6.528;2023-11-19T14:28:35;14.70;;;4.43;;
9848;SDS011;4963;51.444;6.528;2023-11-19T14:31:04;14.33;;;4.47;;
9848;SDS011;4963;51.444;6.528;2023-11-19T14:33:31;16.50;;;4.10;;
9848;SDS011;4963;51.444;6.528;2023-11-19T14:36:00;15.33;;;4.93;;
9848;SDS011;4963;51.444;6.528;2023-11-19T14:38:27;23.63;;;5.10;;
9848;SDS011;4963;51.444;6.528;2023-11-19T14:40:54;20.77;;;4.77;;
9848;SDS011;4963;51.444;6.528;2023-11-19T14:43:21;23.80;;;5.27;;
9848;SDS011;4963;51.444;6.528;2023-11-19T14:45:49;18.40;;;4.87;;
9848;SDS011;4963;51.444;6.528;2023-11-19T14:48:18;18.40;;;4.60;;
9848;SDS011;4963;51.444;6.528;2023-11-19T14:50:45;15.93;;;4.50;;
9848;SDS011;4963;51.444;6.528;2023-11-19T14:53:12;17.50;;;4.20;;
9848;SDS011;4963;51.444;6.528;2023-11-19T14:55:39;19.67;;;4.07;;
9848;SDS011;4963;51.444;6.528;2023-11-19T14:58:06;18.13;;;4.53;;
9848;SDS011;4963;51.444;6.528;2023-11-19T15:00:33;20.33;;;4.67;;
9848;SDS011;4963;51.444;6.528;2023-11-19T15:03:00;17.60;;;4.80;;
9848;SDS011;4963;51.444;6.528;2023-11-19T15:05:29;19.33;;;4.47;;
9848;SDS011;4963;51.444;6.528;2023-11-19T15:07:56;18.10;;;5.00;;
9848;SDS011;4963;51.444;6.528;2023-11-19T15:10:25;20.57;;;4.80;;
9848;SDS011;4963;51.444;6.528;2023-11-19T15:12:52;18.60;;;4.40;;
9848;SDS011;4963;51.444;6.528;2023-11-19T15:15:19;15.47;;;4.50;;
9848;SDS011;4963;51.444;6.528;2023-11-19T15:17:47;23.40;;;4.90;;